Hovedside
METAR-TAF:

METAR-TAF

Lufthavner :

Skellefteå lufthavn

Skellefteå, Sverige

breddegrad: 64-38N, lengdegrad: 021-05E, høyde over havet: 49 m

Gjeldene værobservasjon

Denne rapporten ble laget for 38 minutter siden, klokken 09:20 UTC
Vind 8 kt fra Nord
Temperatur -2°C
Luftfuktighet 80%
Trykk 1019 hPa
Sikt 10 km eller mer
Brutte skyer i en høyde av 1000 ft

METAR: ESNS 200920Z 35008KT 9999 BKN010 M02/M05 Q1019

Tid: 11:58 (09:58 UTC)

Varsel

Denne rapporten ble laget for 1 time og 28 minutter siden, klokken 08:30 UTC
Varsel gyldig fra 20. klokken 09 UTC til 20. klokken 18 UTC
Vind 6 kt fra Nord
Sikt 10 km eller mer
Brutte skyer i en høyde av 1100 ft
Sannsynlighet 40%
fra 20. klokken 09 UTC til 20. klokken 18 UTC
Brutte skyer i en høyde av 1500 ft

TAF: ESNS 200830Z 2009/2018 36006KT 9999 BKN011 PROB40 2009/2018 BKN015

Værobservasjoner og værvarsel for over 4000 flyplasser (METAR- og TAF-rapporter).

Tilgjengelige stasjoner er representert av de røde og gule prikkene på kartet.

Hold musepekeren over prikken for å se navnet på stasjonen.

Klikk så for å se værobservasjoner og -varsler.

For å forandre kartet kan du klikke på den grønne knappen med svart kryss for å zoome inn, på den grønne knappen med strek for å zoome ut, eller på de grønne pilene for å se tilstøtende kart.


METAR-TAF: